Time;durP1;ratioP1;P1;durP2;ratioP2;P2;SDS_P1;SDS_P2;PMS_P1;PMS_P2;Temp;Humidity;BMP_temperature;BMP_pressure;BME280_temperature;BME280_humidity;BME280_pressure;Samples;Min_cycle;Max_cycle;Signal;HPM_P1;HPM_P2
2023/12/04 00:00:36;;;;;;;18.25;8.57;;;;;;;-5.37;85.20;100704.53;5060381;28;20067;-81
2023/12/04 00:03:03;;;;;;;19.10;9.40;;;;;;;-5.47;85.23;100702.28;5058925;28;20552;-80
2023/12/04 00:05:30;;;;;;;19.23;8.57;;;;;;;-5.44;84.94;100685.41;5050528;28;20139;-81
2023/12/04 00:08:00;;;;;;;19.10;9.40;;;;;;;-5.46;85.08;100684.47;5064495;28;20059;-80
2023/12/04 00:10:26;;;;;;;17.83;8.70;;;;;;;-5.39;84.54;100689.91;5056646;28;20135;-80
2023/12/04 00:12:54;;;;;;;19.73;9.50;;;;;;;-5.43;84.61;100691.41;5060922;28;20063;-80
2023/12/04 00:15:21;;;;;;;20.38;8.77;;;;;;;-5.41;84.33;100687.28;5051305;28;20064;-81
2023/12/04 00:17:48;;;;;;;18.73;9.30;;;;;;;-5.47;84.25;100681.84;5062698;28;20071;-81
2023/12/04 00:20:15;;;;;;;21.13;8.05;;;;;;;-5.45;84.28;100675.09;5051328;28;20052;-79
2023/12/04 00:22:42;;;;;;;24.58;10.45;;;;;;;-5.53;84.12;100676.38;5068980;28;20139;-80
2023/12/04 00:25:09;;;;;;;21.23;10.27;;;;;;;-5.49;84.65;100673.19;5044699;28;20059;-80
2023/12/04 00:27:35;;;;;;;20.30;9.10;;;;;;;-5.55;84.54;100672.84;5056957;28;20535;-80
2023/12/04 00:30:06;;;;;;;18.02;9.73;;;;;;;-5.53;84.37;100666.13;5058703;28;20044;-80
2023/12/04 00:32:33;;;;;;;18.73;10.13;;;;;;;-5.50;84.15;100674.88;5058065;28;20048;-80
2023/12/04 00:35:01;;;;;;;21.58;10.32;;;;;;;-5.49;84.29;100673.19;5056939;28;20056;-80
2023/12/04 00:37:28;;;;;;;18.50;8.68;;;;;;;-5.50;84.07;100671.44;5060432;28;20083;-80
2023/12/04 00:39:57;;;;;;;16.45;9.45;;;;;;;-5.56;84.47;100665.97;5060509;28;20060;-81
2023/12/04 00:42:23;;;;;;;20.70;9.95;;;;;;;-5.66;85.10;100659.47;5042904;28;20104;-80
2023/12/04 00:44:50;;;;;;;21.88;10.30;;;;;;;-5.63;85.30;100655.44;5062812;28;20045;-78
2023/12/04 00:47:17;;;;;;;22.15;9.60;;;;;;;-5.57;85.53;100651.44;5060778;28;20057;-81
2023/12/04 00:49:44;;;;;;;23.50;10.82;;;;;;;-5.63;85.80;100645.19;5050120;28;20045;-80
2023/12/04 00:52:11;;;;;;;19.85;9.63;;;;;;;-5.56;86.01;100648.06;5061935;28;20057;-81
2023/12/04 00:54:41;;;;;;;24.35;9.68;;;;;;;-5.61;85.51;100640.16;5066968;28;20113;-78
2023/12/04 00:57:08;;;;;;;18.52;8.95;;;;;;;-5.59;85.77;100636.91;5054787;28;20049;-80
2023/12/04 00:59:35;;;;;;;18.98;9.75;;;;;;;-5.59;85.90;100636.00;5063901;28;20048;-80
2023/12/04 01:02:02;;;;;;;21.70;10.48;;;;;;;-5.57;86.23;100639.53;5054722;28;20037;-80
2023/12/04 01:04:29;;;;;;;20.90;10.07;;;;;;;-5.55;86.29;100631.94;5050256;28;20127;-80
2023/12/04 01:06:56;;;;;;;20.42;9.95;;;;;;;-5.55;86.06;100647.28;5063530;28;20061;-80
2023/12/04 01:09:24;;;;;;;20.70;9.50;;;;;;;-5.61;85.98;100645.28;5042300;28;20099;-79
2023/12/04 01:11:54;;;;;;;21.33;9.93;;;;;;;-5.56;85.60;100651.53;5059233;28;20052;-79
2023/12/04 01:14:21;;;;;;;19.42;9.65;;;;;;;-5.53;85.44;100643.13;5053665;28;20049;-80
2023/12/04 01:16:48;;;;;;;20.45;9.57;;;;;;;-5.43;85.57;100632.56;5058637;28;20044;-79
2023/12/04 01:19:15;;;;;;;25.05;10.45;;;;;;;-5.39;85.35;100629.38;5049936;28;20063;-80
2023/12/04 01:21:42;;;;;;;19.65;9.93;;;;;;;-5.46;85.47;100628.19;5059801;28;20044;-79
2023/12/04 01:24:09;;;;;;;20.17;9.82;;;;;;;-5.28;85.23;100623.16;5052764;28;20079;-80
2023/12/04 01:26:36;;;;;;;19.77;10.05;;;;;;;-5.27;85.25;100624.91;5061953;28;20044;-80
2023/12/04 01:29:03;;;;;;;19.63;9.57;;;;;;;-5.28;85.25;100618.03;5056475;28;20079;-80
2023/12/04 01:31:30;;;;;;;21.35;9.63;;;;;;;-5.33;85.34;100609.25;5063781;28;20044;-80
2023/12/04 01:33:57;;;;;;;21.63;9.75;;;;;;;-5.33;85.54;100616.03;5052708;28;20048;-81
2023/12/04 01:36:24;;;;;;;22.15;9.57;;;;;;;-5.31;85.61;100611.88;5047369;28;20219;-80
2023/12/04 01:38:52;;;;;;;25.85;10.35;;;;;;;-5.22;85.13;100603.81;5071565;28;20079;-80
2023/12/04 01:41:19;;;;;;;21.15;9.63;;;;;;;-5.32;85.11;100608.44;5046825;28;20246;-78
2023/12/04 01:43:46;;;;;;;18.15;9.25;;;;;;;-5.33;85.11;100600.69;5062837;28;20048;-79
2023/12/04 01:46:15;;;;;;;19.30;9.20;;;;;;;-5.33;85.22;100601.56;5038644;28;20079;-80
2023/12/04 01:48:44;;;;;;;20.77;10.57;;;;;;;-5.32;84.89;100595.63;5046166;28;20048;-80
2023/12/04 01:51:12;;;;;;;19.92;9.98;;;;;;;-5.38;84.65;100599.56;5056477;28;20083;-80
2023/12/04 01:53:40;;;;;;;21.35;10.95;;;;;;;-5.45;84.58;100595.81;5075436;28;20108;-79
2023/12/04 01:56:07;;;;;;;20.00;9.98;;;;;;;-5.37;84.92;100594.53;5055747;28;20175;-80
2023/12/04 01:58:34;;;;;;;19.02;9.57;;;;;;;-5.45;84.97;100593.25;5060772;28;20044;-80
2023/12/04 02:01:02;;;;;;;17.92;9.38;;;;;;;-5.41;84.18;100595.19;5071145;28;20044;-80
2023/12/04 02:03:29;;;;;;;20.33;9.10;;;;;;;-5.55;84.44;100585.91;5051551;28;20071;-80
2023/12/04 02:05:59;;;;;;;19.95;9.60;;;;;;;-5.59;84.64;100588.31;5055724;28;20048;-79
2023/12/04 02:08:26;;;;;;;22.25;10.02;;;;;;;-5.60;84.56;100578.88;5046761;28;20063;-80
2023/12/04 02:10:53;;;;;;;23.48;10.18;;;;;;;-5.63;84.87;100575.28;5058987;28;20045;-80
2023/12/04 02:13:20;;;;;;;15.90;8.23;;;;;;;-5.54;84.52;100573.19;5062086;28;20054;-80
2023/12/04 02:15:49;;;;;;;17.63;8.57;;;;;;;-5.61;84.45;100564.31;5068385;28;20052;-81
2023/12/04 02:18:18;;;;;;;18.63;8.88;;;;;;;-5.67;84.37;100565.69;5065339;28;20074;-80
2023/12/04 02:20:44;;;;;;;18.92;9.40;;;;;;;-5.68;84.50;100557.13;5062693;28;20116;-80
2023/12/04 02:23:11;;;;;;;19.70;9.32;;;;;;;-5.67;84.02;100558.03;5062429;28;20049;-81
2023/12/04 02:25:38;;;;;;;22.83;10.05;;;;;;;-5.68;84.62;100559.69;5059182;28;20068;-80
2023/12/04 02:28:10;;;;;;;19.95;9.43;;;;;;;-5.77;84.66;100554.97;5059568;28;20145;-79
2023/12/04 02:30:37;;;;;;;20.70;9.55;;;;;;;-5.69;84.57;100560.50;5054626;28;20139;-81
2023/12/04 02:33:05;;;;;;;17.33;8.48;;;;;;;-5.69;84.40;100552.81;5055206;28;20139;-78
2023/12/04 02:35:34;;;;;;;23.13;9.48;;;;;;;-5.72;84.35;100547.56;5055655;28;20113;-81
2023/12/04 02:38:01;;;;;;;20.02;9.27;;;;;;;-5.72;84.69;100541.53;5057208;28;20044;-81
2023/12/04 02:40:28;;;;;;;16.75;8.93;;;;;;;-5.71;84.61;100541.63;5056567;28;20049;-79
2023/12/04 02:42:55;;;;;;;19.23;9.32;;;;;;;-5.64;84.42;100532.59;5058810;28;20056;-80
2023/12/04 02:45:21;;;;;;;20.13;9.40;;;;;;;-5.64;84.51;100533.47;5053499;28;20052;-81
2023/12/04 02:47:48;;;;;;;20.25;9.15;;;;;;;-5.71;84.56;100526.28;5061266;28;20048;-81
2023/12/04 02:50:15;;;;;;;19.55;9.30;;;;;;;-5.62;84.58;100533.56;5048677;28;20063;-81
2023/12/04 02:52:42;;;;;;;21.55;9.55;;;;;;;-5.71;84.75;100528.84;5057989;28;20036;-79
2023/12/04 02:55:08;;;;;;;19.05;9.52;;;;;;;-5.69;84.81;100517.03;5044872;28;20053;-80
2023/12/04 02:57:36;;;;;;;22.52;10.55;;;;;;;-5.64;84.96;100522.38;5059139;28;20065;-81
2023/12/04 03:00:04;;;;;;;17.00;7.70;;;;;;;-5.70;84.62;100515.25;5049426;28;20048;-80
2023/12/04 03:02:31;;;;;;;21.40;8.65;;;;;;;-5.64;84.34;100505.34;5049949;28;20043;-81
2023/12/04 03:04:58;;;;;;;18.27;9.50;;;;;;;-5.64;84.38;100510.47;5057508;28;20135;-79
2023/12/04 03:07:26;;;;;;;19.40;9.32;;;;;;;-5.64;84.53;100507.91;5049192;28;20060;-81
2023/12/04 03:09:53;;;;;;;17.10;8.18;;;;;;;-5.62;84.31;100501.22;5055977;28;20041;-81
2023/12/04 03:12:20;;;;;;;19.73;9.55;;;;;;;-5.63;84.43;100499.44;5053415;28;20048;-81
2023/12/04 03:14:46;;;;;;;18.27;8.32;;;;;;;-5.65;84.32;100490.81;5049186;28;20080;-81
2023/12/04 03:17:13;;;;;;;22.52;9.15;;;;;;;-5.66;84.42;100481.38;5049832;28;20060;-81
2023/12/04 03:19:40;;;;;;;18.15;9.18;;;;;;;-5.65;84.31;100472.94;5057506;28;20048;-81
2023/12/04 03:22:07;;;;;;;16.75;8.40;;;;;;;-5.67;84.23;100471.94;5037415;28;20052;-81
2023/12/04 03:24:34;;;;;;;17.38;9.27;;;;;;;-5.64;84.69;100463.56;5053942;28;20044;-81
2023/12/04 03:27:02;;;;;;;18.10;8.35;;;;;;;-5.69;84.25;100471.00;5056067;28;20064;-79
2023/12/04 03:29:28;;;;;;;18.58;8.70;;;;;;;-5.72;84.59;100459.72;5055308;28;20055;-81
2023/12/04 03:31:56;;;;;;;17.67;8.63;;;;;;;-5.70;84.83;100464.13;5059565;28;20055;-81
2023/12/04 03:34:22;;;;;;;18.10;7.93;;;;;;;-5.64;84.26;100454.19;5049114;28;20046;-81
2023/12/04 03:36:50;;;;;;;16.67;7.82;;;;;;;-5.63;83.98;100450.84;5058865;28;20049;-81
2023/12/04 03:39:16;;;;;;;18.98;8.90;;;;;;;-5.65;84.22;100447.34;5058795;28;20047;-81
2023/12/04 03:41:43;;;;;;;16.67;8.43;;;;;;;-5.67;84.38;100440.41;5053756;28;20058;-80
2023/12/04 03:44:10;;;;;;;16.65;8.10;;;;;;;-5.65;84.47;100442.25;5040364;28;20044;-81
2023/12/04 03:46:37;;;;;;;18.77;7.97;;;;;;;-5.63;84.16;100435.50;5040702;28;20048;-81
2023/12/04 03:49:05;;;;;;;16.10;8.00;;;;;;;-5.62;84.13;100439.84;5047763;28;20049;-80
2023/12/04 03:51:32;;;;;;;19.33;9.00;;;;;;;-5.64;84.26;100433.75;5061640;28;20071;-79
2023/12/04 03:53:58;;;;;;;18.75;8.10;;;;;;;-5.65;84.15;100447.34;5039536;28;20049;-81
2023/12/04 03:56:25;;;;;;;16.40;7.90;;;;;;;-5.63;84.36;100448.28;5033667;28;20144;-82
2023/12/04 03:58:52;;;;;;;18.85;9.02;;;;;;;-5.61;84.24;100444.13;5056847;28;20051;-78
2023/12/04 04:01:18;;;;;;;17.50;7.63;;;;;;;-5.60;83.99;100440.78;5052352;28;20132;-81
2023/12/04 04:03:45;;;;;;;20.15;8.88;;;;;;;-5.56;84.03;100440.91;5059609;28;20084;-81
2023/12/04 04:06:12;;;;;;;18.08;8.30;;;;;;;-5.59;83.82;100447.66;5054073;28;20088;-81
2023/12/04 04:08:39;;;;;;;18.25;8.90;;;;;;;-5.64;83.88;100438.84;5059004;28;20056;-82
2023/12/04 04:11:06;;;;;;;16.70;8.32;;;;;;;-5.66;84.11;100434.47;5056253;28;20048;-81
2023/12/04 04:13:33;;;;;;;16.92;8.48;;;;;;;-5.62;83.49;100434.72;5051459;28;20051;-82
2023/12/04 04:15:59;;;;;;;16.52;8.43;;;;;;;-5.63;83.55;100434.66;5063867;28;20063;-77
2023/12/04 04:18:26;;;;;;;18.63;8.43;;;;;;;-5.60;83.65;100438.22;5069828;28;20106;-81
2023/12/04 04:20:53;;;;;;;16.20;7.95;;;;;;;-5.57;83.29;100444.31;5074054;28;20564;-81
2023/12/04 04:23:20;;;;;;;15.65;8.02;;;;;;;-5.57;83.55;100436.63;5052042;28;20060;-81
2023/12/04 04:25:46;;;;;;;15.93;8.07;;;;;;;-5.53;83.33;100441.06;5058661;28;20049;-81
2023/12/04 04:28:13;;;;;;;19.75;9.02;;;;;;;-5.50;83.07;100443.81;5068432;28;20044;-81
2023/12/04 04:30:40;;;;;;;19.90;8.00;;;;;;;-5.51;83.24;100442.03;5065977;28;20048;-81
2023/12/04 04:33:07;;;;;;;18.92;8.55;;;;;;;-5.54;83.17;100439.34;5054771;28;20131;-81
2023/12/04 04:35:34;;;;;;;18.95;8.50;;;;;;;-5.56;83.27;100430.69;5063247;28;20052;-82
2023/12/04 04:38:00;;;;;;;16.15;7.90;;;;;;;-5.56;83.21;100430.69;5055273;28;20480;-81
2023/12/04 04:40:27;;;;;;;17.33;8.35;;;;;;;-5.58;83.66;100422.94;5057107;28;20047;-81
2023/12/04 04:42:54;;;;;;;18.83;8.68;;;;;;;-5.54;83.91;100413.75;5058907;28;20110;-81
2023/12/04 04:45:20;;;;;;;17.70;8.90;;;;;;;-5.53;83.57;100415.50;5055704;28;20139;-81
2023/12/04 04:47:47;;;;;;;12.88;6.85;;;;;;;-5.48;83.14;100403.81;5058061;28;20048;-81
2023/12/04 04:50:14;;;;;;;18.92;8.25;;;;;;;-5.51;83.42;100409.66;5051097;28;20098;-81
2023/12/04 04:52:40;;;;;;;15.32;8.27;;;;;;;-5.61;84.02;100403.22;5061734;28;20040;-81
2023/12/04 04:55:07;;;;;;;14.25;6.63;;;;;;;-5.58;83.62;100412.72;5057229;28;20518;-81
2023/12/04 04:57:34;;;;;;;14.15;7.40;;;;;;;-5.62;84.25;100405.69;5057474;28;20045;-81
2023/12/04 05:00:01;;;;;;;19.80;8.50;;;;;;;-5.55;83.78;100406.88;5072295;28;20080;-82
2023/12/04 05:02:28;;;;;;;15.73;8.10;;;;;;;-5.50;83.61;100405.44;5075257;28;20051;-81
2023/12/04 05:04:54;;;;;;;14.48;7.50;;;;;;;-5.49;83.64;100402.97;5053269;28;20060;-80
2023/12/04 05:07:21;;;;;;;16.17;7.95;;;;;;;-5.47;83.49;100405.59;5051275;28;20099;-81
2023/12/04 05:09:48;;;;;;;14.27;8.10;;;;;;;-5.53;83.47;100401.06;5058262;28;20052;-81
2023/12/04 05:12:15;;;;;;;15.55;6.68;;;;;;;-5.58;83.21;100402.50;5046659;28;20117;-81
2023/12/04 05:14:41;;;;;;;18.95;8.50;;;;;;;-5.61;83.53;100410.00;5054330;28;20056;-80
2023/12/04 05:17:08;;;;;;;15.45;7.30;;;;;;;-5.56;83.74;100402.56;5054542;28;20048;-80
2023/12/04 05:19:35;;;;;;;17.33;8.30;;;;;;;-5.52;83.83;100396.81;5056737;28;20056;-81
2023/12/04 05:22:02;;;;;;;20.30;8.20;;;;;;;-5.56;83.69;100405.13;5053726;28;20048;-81
2023/12/04 05:24:28;;;;;;;14.00;7.15;;;;;;;-5.56;83.66;100405.13;5057013;28;20060;-81
2023/12/04 05:26:55;;;;;;;14.90;6.97;;;;;;;-5.58;83.57;100410.16;5058272;28;20536;-81
2023/12/04 05:29:22;;;;;;;18.48;8.55;;;;;;;-5.63;84.07;100399.72;5070070;28;20051;-81
2023/12/04 05:31:49;;;;;;;16.95;8.73;;;;;;;-5.57;84.21;100385.50;5060017;28;20048;-81
2023/12/04 05:34:15;;;;;;;19.60;9.18;;;;;;;-5.56;84.28;100394.88;5040848;28;20308;-80
2023/12/04 05:36:42;;;;;;;15.48;8.32;;;;;;;-5.63;84.15;100379.25;5061137;28;20044;-80
2023/12/04 05:39:09;;;;;;;16.55;7.60;;;;;;;-5.53;84.01;100387.38;5054190;28;20053;-81
2023/12/04 05:41:36;;;;;;;17.27;7.75;;;;;;;-5.53;83.77;100388.25;5065563;28;20041;-80
2023/12/04 05:44:03;;;;;;;17.35;9.15;;;;;;;-5.56;83.57;100385.56;5056291;28;20053;-80
2023/12/04 05:46:29;;;;;;;16.75;7.38;;;;;;;-5.65;83.40;100390.19;5058609;28;20041;-81
2023/12/04 05:48:56;;;;;;;17.42;8.27;;;;;;;-5.62;84.18;100388.69;5058125;28;20439;-80
2023/12/04 05:51:23;;;;;;;17.90;8.60;;;;;;;-5.60;84.04;100384.50;5046649;28;20506;-79
2023/12/04 05:53:50;;;;;;;18.00;8.38;;;;;;;-5.62;84.60;100373.34;5060811;28;20051;-80
2023/12/04 05:56:16;;;;;;;15.75;7.95;;;;;;;-5.61;83.96;100374.22;5055307;28;20044;-80
2023/12/04 05:58:43;;;;;;;19.10;8.00;;;;;;;-5.57;84.28;100363.34;5063184;28;20056;-79
2023/12/04 06:01:10;;;;;;;16.15;7.47;;;;;;;-5.55;83.91;100355.75;5052358;28;20045;-80
2023/12/04 06:03:37;;;;;;;15.57;7.45;;;;;;;-5.48;83.66;100347.56;5060552;28;20049;-80
2023/12/04 06:06:04;;;;;;;16.50;8.60;;;;;;;-5.46;84.37;100357.06;5057960;28;20050;-80
2023/12/04 06:08:31;;;;;;;12.25;6.47;;;;;;;-5.51;84.00;100358.50;5064283;28;20132;-80
2023/12/04 06:10:58;;;;;;;15.98;8.45;;;;;;;-5.47;84.57;100354.44;5061204;28;20091;-80
2023/12/04 06:13:24;;;;;;;17.98;8.75;;;;;;;-5.55;85.22;100355.75;5068711;28;20102;-80
2023/12/04 06:15:51;;;;;;;19.27;8.40;;;;;;;-5.49;83.90;100345.78;5059821;28;20132;-79
2023/12/04 06:18:20;;;;;;;19.02;8.85;;;;;;;-5.51;84.41;100342.31;5056248;28;20059;-80
2023/12/04 06:20:47;;;;;;;18.70;8.45;;;;;;;-5.50;84.83;100337.25;5060447;28;20565;-80
2023/12/04 06:23:14;;;;;;;16.58;7.38;;;;;;;-5.50;84.97;100333.84;5051253;28;20060;-80
2023/12/04 06:25:41;;;;;;;16.95;8.07;;;;;;;-5.47;85.37;100333.97;5047134;28;20040;-80
2023/12/04 06:28:08;;;;;;;19.05;8.20;;;;;;;-5.47;85.11;100323.75;5054504;28;20052;-80
2023/12/04 06:30:35;;;;;;;19.38;8.52;;;;;;;-5.41;84.90;100321.47;5058018;28;20044;-80
2023/12/04 06:33:02;;;;;;;17.20;9.05;;;;;;;-5.42;84.03;100325.72;5032919;28;20112;-80
2023/12/04 06:35:29;;;;;;;22.00;8.38;;;;;;;-5.37;84.02;100315.69;5058763;28;20458;-80
2023/12/04 06:38:01;;;;;;;17.05;9.02;;;;;;;-5.31;84.60;100312.56;5051677;28;20056;-80
2023/12/04 06:40:28;;;;;;;17.00;8.38;;;;;;;-5.30;83.91;100312.63;5022159;28;20052;-79
2023/12/04 06:42:55;;;;;;;18.40;8.05;;;;;;;-5.34;84.15;100297.94;5035961;28;20049;-80
2023/12/04 06:45:22;;;;;;;19.05;8.27;;;;;;;-5.25;84.66;100300.91;5056647;28;20075;-79
2023/12/04 06:47:50;;;;;;;18.45;7.97;;;;;;;-5.25;84.55;100305.16;5052238;28;20066;-80
2023/12/04 06:50:17;;;;;;;18.83;8.52;;;;;;;-5.20;84.74;100301.09;5038826;28;20069;-79
2023/12/04 06:52:44;;;;;;;18.00;8.77;;;;;;;-5.18;84.95;100299.50;5062380;28;20048;-80
2023/12/04 06:55:12;;;;;;;15.48;8.02;;;;;;;-5.22;84.96;100294.19;5053557;28;20061;-80
2023/12/04 06:57:39;;;;;;;20.20;8.27;;;;;;;-5.19;84.93;100294.34;5069076;28;20036;-80
2023/12/04 07:00:07;;;;;;;15.88;7.88;;;;;;;-5.18;85.12;100291.84;5054495;28;20131;-79
2023/12/04 07:02:48;;;;;;;17.35;7.53;;;;;;;-5.16;85.09;100290.22;5047345;28;20056;-80
2023/12/04 07:05:16;;;;;;;16.52;7.40;;;;;;;-5.13;85.54;100284.38;5041623;28;20055;-80
2023/12/04 07:07:43;;;;;;;17.35;8.27;;;;;;;-5.14;85.80;100275.81;5064512;28;20045;-78
2023/12/04 07:10:14;;;;;;;16.55;7.95;;;;;;;-5.14;85.48;100278.38;5055471;28;20063;-80
2023/12/04 07:12:42;;;;;;;17.73;8.40;;;;;;;-5.09;85.31;100276.03;5060750;28;20052;-80
2023/12/04 07:15:09;;;;;;;17.17;8.38;;;;;;;-5.04;85.64;100274.53;5055098;28;20381;-80
2023/12/04 07:17:38;;;;;;;16.48;8.32;;;;;;;-5.01;85.44;100278.91;5062728;28;20061;-80
2023/12/04 07:20:09;;;;;;;19.70;8.02;;;;;;;-5.04;85.41;100284.78;5054638;28;20056;-79
2023/12/04 07:22:35;;;;;;;14.48;7.78;;;;;;;-4.98;85.38;100285.06;5071830;28;20051;-80
2023/12/04 07:25:06;;;;;;;16.77;7.70;;;;;;;-4.99;85.66;100275.63;5046900;28;20056;-80
2023/12/04 07:27:34;;;;;;;20.58;8.82;;;;;;;-4.90;85.63;100276.03;5073957;28;20047;-80
2023/12/04 07:30:03;;;;;;;18.45;7.97;;;;;;;-4.92;85.29;100280.22;5055607;28;20059;-80
2023/12/04 07:32:30;;;;;;;19.13;7.65;;;;;;;-4.92;85.34;100279.34;5065766;28;20044;-81
2023/12/04 07:34:58;;;;;;;16.38;8.35;;;;;;;-4.85;85.23;100272.81;5059401;28;20079;-80
2023/12/04 07:37:26;;;;;;;18.95;7.93;;;;;;;-4.85;85.24;100281.38;5045315;28;20074;-80
2023/12/04 07:39:53;;;;;;;19.85;8.63;;;;;;;-4.83;84.82;100276.31;5042397;28;20060;-79
2023/12/04 07:42:19;;;;;;;14.35;7.57;;;;;;;-4.79;84.26;100278.22;5050002;28;20052;-80
2023/12/04 07:44:46;;;;;;;17.35;8.13;;;;;;;-4.74;84.38;100289.53;5060630;28;20399;-80
2023/12/04 07:47:14;;;;;;;18.15;8.27;;;;;;;-4.75;84.13;100282.63;5045015;28;20053;-80
2023/12/04 07:49:41;;;;;;;16.58;7.38;;;;;;;-4.66;84.11;100269.34;5058205;28;20053;-80
2023/12/04 07:52:08;;;;;;;17.00;7.97;;;;;;;-4.65;83.20;100263.44;5053534;28;20098;-80
2023/12/04 07:54:35;;;;;;;16.08;8.38;;;;;;;-4.65;82.76;100259.22;5051593;28;20124;-80
2023/12/04 07:57:02;;;;;;;20.35;8.43;;;;;;;-4.64;82.67;100263.50;5048163;28;20055;-80
2023/12/04 07:59:29;;;;;;;15.00;7.95;;;;;;;-4.61;82.38;100265.31;5057482;28;20053;-79
2023/12/04 08:01:56;;;;;;;17.27;7.75;;;;;;;-4.56;82.25;100256.16;5059620;28;20048;-79
2023/12/04 08:04:23;;;;;;;16.10;8.27;;;;;;;-4.55;81.89;100256.22;5047958;28;20052;-80
2023/12/04 08:06:50;;;;;;;17.67;9.27;;;;;;;-4.43;82.67;100245.63;5042423;28;20078;-80
2023/12/04 08:09:17;;;;;;;20.73;10.10;;;;;;;-4.40;82.36;100250.00;5057295;28;20132;-80
2023/12/04 08:11:44;;;;;;;17.92;8.27;;;;;;;-4.43;82.00;100242.16;5060643;28;20567;-79
2023/12/04 08:14:11;;;;;;;18.02;8.38;;;;;;;-4.40;82.07;100244.88;5042337;28;20044;-78
2023/12/04 08:16:37;;;;;;;18.48;9.55;;;;;;;-4.40;81.94;100239.75;5053888;28;20052;-80
2023/12/04 08:19:04;;;;;;;17.95;8.30;;;;;;;-4.40;81.85;100244.88;5058454;28;20056;-80
2023/12/04 08:21:32;;;;;;;16.27;8.10;;;;;;;-4.37;82.21;100240.75;5060666;28;20044;-79
2023/12/04 08:23:58;;;;;;;15.25;8.25;;;;;;;-4.31;82.33;100229.88;5056350;28;20041;-79
2023/12/04 08:26:25;;;;;;;18.02;9.45;;;;;;;-4.28;82.56;100232.56;5062713;28;20062;-80
2023/12/04 08:28:52;;;;;;;16.02;8.75;;;;;;;-4.24;82.34;100239.56;5064169;28;20049;-80
2023/12/04 08:31:19;;;;;;;15.13;7.78;;;;;;;-4.22;81.86;100225.13;5063712;28;20076;-80
2023/12/04 08:33:46;;;;;;;17.27;7.57;;;;;;;-4.14;82.00;100227.13;5077439;28;20056;-79
2023/12/04 08:36:13;;;;;;;15.48;8.38;;;;;;;-4.13;81.65;100219.50;5055162;28;20048;-80
2023/12/04 08:38:39;;;;;;;15.35;7.93;;;;;;;-4.06;81.74;100216.38;5060095;28;20068;-80
2023/12/04 08:41:07;;;;;;;14.43;8.02;;;;;;;-3.97;81.66;100223.56;5059935;28;20044;-80
2023/12/04 08:43:33;;;;;;;12.40;7.32;;;;;;;-3.92;81.71;100219.50;5062032;28;20044;-80
2023/12/04 08:46:00;;;;;;;14.73;7.93;;;;;;;-3.90;81.74;100217.84;5063373;28;20048;-80
2023/12/04 08:48:27;;;;;;;15.75;7.20;;;;;;;-3.91;81.05;100221.25;5040560;28;20064;-79
2023/12/04 08:50:54;;;;;;;12.18;6.90;;;;;;;-3.87;80.98;100206.84;5060211;28;20076;-79
2023/12/04 08:53:21;;;;;;;13.65;7.22;;;;;;;-3.81;81.31;100219.03;5042673;28;20110;-79
2023/12/04 08:55:48;;;;;;;16.33;8.48;;;;;;;-3.79;81.18;100212.31;5047197;28;20122;-79
2023/12/04 08:58:15;;;;;;;14.77;7.20;;;;;;;-3.81;81.10;100206.22;5051135;28;20044;-80
2023/12/04 09:00:42;;;;;;;13.48;7.13;;;;;;;-3.80;80.57;100207.97;5068634;28;20047;-80
2023/12/04 09:03:13;;;;;;;13.80;7.05;;;;;;;-3.78;80.55;100219.16;5050207;28;20049;-81
2023/12/04 09:05:51;;;;;;;14.27;7.07;;;;;;;-3.79;80.49;100220.88;5063829;28;20048;-80
2023/12/04 09:08:19;;;;;;;15.13;7.40;;;;;;;-3.71;81.41;100221.16;5057574;28;20120;-80
2023/12/04 09:11:03;;;;;;;16.55;7.60;;;;;;;-3.72;80.87;100216.81;5059722;28;20135;-80
2023/12/04 09:13:48;;;;;;;15.15;8.00;;;;;;;-3.69;81.22;100216.97;5060483;28;20055;-79
2023/12/04 09:16:15;;;;;;;14.57;7.55;;;;;;;-3.69;81.55;100207.56;5036809;28;20079;-80
2023/12/04 09:18:41;;;;;;;16.15;7.53;;;;;;;-3.65;81.36;100202.56;5063826;28;20138;-80
2023/12/04 09:21:08;;;;;;;13.18;6.95;;;;;;;-3.62;81.04;100198.44;5048096;28;20443;-80
2023/12/04 09:23:35;;;;;;;15.82;7.90;;;;;;;-3.63;80.58;100206.09;5063602;28;20044;-80
2023/12/04 09:26:02;;;;;;;13.98;7.25;;;;;;;-3.64;80.16;100210.31;5048257;28;20045;-79
2023/12/04 09:28:29;;;;;;;19.52;8.02;;;;;;;-3.61;80.27;100209.56;5080081;28;20049;-80
2023/12/04 09:30:56;;;;;;;14.95;7.28;;;;;;;-3.63;79.85;100196.69;5058307;28;20062;-80
2023/12/04 09:33:23;;;;;;;13.85;7.25;;;;;;;-3.58;80.01;100200.28;5048909;28;20048;-79
2023/12/04 09:35:50;;;;;;;13.23;7.20;;;;;;;-3.55;80.29;100207.22;5064841;28;20056;-80
2023/12/04 09:38:16;;;;;;;14.10;6.68;;;;;;;-3.54;79.91;100217.53;5060955;28;20044;-80
2023/12/04 09:40:43;;;;;;;15.27;7.75;;;;;;;-3.52;79.59;100226.19;5061847;28;20052;-79
2023/12/04 09:43:10;;;;;;;14.70;7.00;;;;;;;-3.48;79.72;100216.03;5055249;28;20052;-80
2023/12/04 09:45:38;;;;;;;15.75;7.72;;;;;;;-3.45;79.04;100213.59;5061177;28;20044;-80
2023/12/04 09:48:06;;;;;;;15.00;7.10;;;;;;;-3.41;79.09;100218.88;5077196;28;20498;-78
2023/12/04 09:50:33;;;;;;;12.75;6.70;;;;;;;-3.35;78.81;100210.53;5066621;28;20572;-79
2023/12/04 09:53:02;;;;;;;12.75;6.97;;;;;;;-3.27;78.60;100208.25;5070544;28;20045;-80
2023/12/04 09:55:29;;;;;;;13.13;6.82;;;;;;;-3.26;78.21;100215.16;5075446;28;20049;-80
2023/12/04 09:57:57;;;;;;;14.88;7.35;;;;;;;-3.16;78.43;100214.66;5056383;28;20049;-80
2023/12/04 10:00:24;;;;;;;14.55;7.40;;;;;;;-3.08;78.62;100203.00;5070621;28;20044;-79
2023/12/04 10:02:52;;;;;;;12.43;6.35;;;;;;;-2.95;78.60;100190.56;5059374;28;20048;-80
2023/12/04 10:05:19;;;;;;;13.88;7.18;;;;;;;-2.89;78.63;100186.53;5051272;28;20052;-79
2023/12/04 10:07:46;;;;;;;13.18;7.28;;;;;;;-2.85;78.36;100190.97;5049915;28;20044;-79
2023/12/04 10:10:14;;;;;;;13.00;6.88;;;;;;;-2.76;78.41;100197.25;5053617;28;20056;-79
2023/12/04 10:12:42;;;;;;;16.30;7.88;;;;;;;-2.75;77.74;100192.19;5057460;28;20447;-79
2023/12/04 10:15:11;;;;;;;16.33;7.40;;;;;;;-2.74;77.93;100182.75;5059454;28;20040;-80
2023/12/04 10:17:43;;;;;;;12.68;6.72;;;;;;;-2.75;78.06;100181.00;5075499;28;20478;-80
2023/12/04 10:20:17;;;;;;;13.90;7.25;;;;;;;-2.70;78.62;100166.63;5061142;28;20484;-80
2023/12/04 10:22:57;;;;;;;12.02;6.53;;;;;;;-2.69;79.24;100155.56;5055281;28;20057;-79
2023/12/04 10:25:29;;;;;;;12.77;6.95;;;;;;;-2.78;78.59;100160.34;5051955;28;20052;-79
2023/12/04 10:28:09;;;;;;;15.70;7.40;;;;;;;-2.70;79.94;100153.78;5059752;28;20067;-80
2023/12/04 10:30:36;;;;;;;11.93;6.70;;;;;;;-2.70;80.01;100156.38;5057925;28;20045;-79
2023/12/04 10:33:04;;;;;;;15.75;7.30;;;;;;;-2.68;80.27;100157.28;5058814;28;20074;-78
2023/12/04 10:35:33;;;;;;;14.35;7.05;;;;;;;-2.76;79.77;100153.59;5057780;28;20058;-80
2023/12/04 10:38:00;;;;;;;12.73;7.18;;;;;;;-2.82;79.91;100149.13;5059940;28;20119;-77
2023/12/04 10:40:28;;;;;;;14.50;7.47;;;;;;;-2.76;81.28;100140.75;5048912;28;20052;-80
2023/12/04 10:43:16;;;;;;;12.35;7.40;;;;;;;-2.74;80.93;100131.38;5061853;28;20044;-79
2023/12/04 10:45:45;;;;;;;13.55;7.07;;;;;;;-2.80;81.13;100127.78;5062170;28;20049;-78
2023/12/04 10:48:13;;;;;;;12.95;6.45;;;;;;;-2.73;81.25;100122.88;5052460;28;20079;-79
2023/12/04 10:50:42;;;;;;;12.52;7.10;;;;;;;-2.76;81.83;100112.50;5048991;28;20059;-79
2023/12/04 10:53:12;;;;;;;15.30;6.93;;;;;;;-2.82;81.63;100108.88;5059802;28;20052;-78
2023/12/04 10:55:42;;;;;;;14.32;7.15;;;;;;;-2.86;81.72;100109.59;5062434;28;20043;-79
2023/12/04 10:58:24;;;;;;;12.93;6.38;;;;;;;-2.81;82.19;100100.38;5029317;28;20138;-80
2023/12/04 11:00:56;;;;;;;13.10;6.88;;;;;;;-2.83;82.20;100103.69;5049653;28;20040;-79
2023/12/04 11:03:29;;;;;;;15.82;7.72;;;;;;;-2.86;82.56;100089.06;5030047;28;20056;-80
2023/12/04 11:05:59;;;;;;;12.05;7.18;;;;;;;-2.97;83.08;100104.13;5078406;28;20059;-79
2023/12/04 11:08:29;;;;;;;14.05;7.07;;;;;;;-3.00;83.33;100097.97;5051004;28;20155;-79
2023/12/04 11:10:59;;;;;;;13.48;7.07;;;;;;;-2.97;84.19;100091.28;5053239;28;20143;-79
2023/12/04 11:13:31;;;;;;;16.20;7.82;;;;;;;-2.83;84.50;100086.59;5071561;28;20052;-79
2023/12/04 11:16:13;;;;;;;16.25;7.75;;;;;;;-2.81;83.67;100079.81;5063436;28;20063;-78
2023/12/04 11:18:43;;;;;;;12.77;6.80;;;;;;;-2.76;84.91;100076.53;5059739;28;20152;-79